createdAt,value
2023-04-16T00:02:18.878Z,81.75
2023-04-16T00:05:04.436Z,81.03
2023-04-16T00:07:49.553Z,78.70
2023-04-16T00:10:35.313Z,81.28
2023-04-16T00:13:20.861Z,77.03
2023-04-16T00:16:06.859Z,80.05
2023-04-16T00:18:51.933Z,83.80
2023-04-16T00:21:37.591Z,82.97
2023-04-16T00:24:22.734Z,83.60
2023-04-16T00:27:08.106Z,79.13
2023-04-16T00:29:53.180Z,82.53
2023-04-16T00:32:38.468Z,79.30
2023-04-16T00:35:23.901Z,85.17
2023-04-16T00:38:09.147Z,79.07
2023-04-16T00:40:54.121Z,81.27
2023-04-16T00:43:39.597Z,81.87
2023-04-16T00:46:25.669Z,82.00
2023-04-16T00:49:11.048Z,79.90
2023-04-16T00:51:56.377Z,90.72
2023-04-16T00:54:41.636Z,82.57
2023-04-16T00:57:26.653Z,83.93
2023-04-16T01:00:12.350Z,82.40
2023-04-16T01:02:58.971Z,83.27
2023-04-16T01:05:44.583Z,81.47
2023-04-16T01:08:29.917Z,78.90
2023-04-16T01:11:15.691Z,84.03
2023-04-16T01:14:01.069Z,78.70
2023-04-16T01:16:46.610Z,82.50
2023-04-16T01:19:31.959Z,81.63
2023-04-16T01:22:17.446Z,84.70
2023-04-16T01:25:02.364Z,84.93
2023-04-16T01:27:50.787Z,86.30
2023-04-16T01:30:35.765Z,85.83
2023-04-16T01:33:21.960Z,87.27
2023-04-16T01:36:07.617Z,84.10
2023-04-16T01:38:53.087Z,85.50
2023-04-16T01:41:38.530Z,81.95
2023-04-16T01:44:23.980Z,86.10
2023-04-16T01:47:09.324Z,76.93
2023-04-16T01:49:54.769Z,80.73
2023-04-16T01:52:40.041Z,83.90
2023-04-16T01:55:25.418Z,84.35
2023-04-16T01:58:10.874Z,83.43
2023-04-16T02:00:56.382Z,84.23
2023-04-16T02:03:42.068Z,77.47
2023-04-16T02:06:27.322Z,81.47
2023-04-16T02:09:12.812Z,82.57
2023-04-16T02:11:57.694Z,82.28
2023-04-16T02:14:43.134Z,83.57
2023-04-16T02:17:28.746Z,85.38
2023-04-16T02:20:14.033Z,81.03
2023-04-16T02:22:59.540Z,81.20
2023-04-16T02:25:47.074Z,86.30
2023-04-16T02:28:32.214Z,83.23
2023-04-16T02:31:17.541Z,79.35
2023-04-16T02:34:03.406Z,82.53
2023-04-16T02:36:48.873Z,79.30
2023-04-16T02:39:34.362Z,82.80
2023-04-16T02:42:19.767Z,83.68
2023-04-16T02:45:05.581Z,80.90
2023-04-16T02:47:51.707Z,81.38
2023-04-16T02:50:37.529Z,79.97
2023-04-16T02:53:22.999Z,83.40
2023-04-16T02:56:08.272Z,80.28
2023-04-16T02:58:53.691Z,77.80
2023-04-16T03:01:39.023Z,80.35
2023-04-16T03:04:24.470Z,75.72
2023-04-16T03:07:09.805Z,79.33
2023-04-16T03:09:55.281Z,80.67
2023-04-16T03:12:40.612Z,80.22
2023-04-16T03:15:25.924Z,83.85
2023-04-16T03:18:11.163Z,76.13
2023-04-16T03:20:56.556Z,76.95
2023-04-16T03:23:41.828Z,75.73
2023-04-16T03:26:27.419Z,83.70
2023-04-16T03:29:12.790Z,78.77
2023-04-16T03:31:57.624Z,79.40
2023-04-16T03:34:43.022Z,77.80
2023-04-16T03:37:28.292Z,81.03
2023-04-16T03:40:14.090Z,82.60
2023-04-16T03:42:59.116Z,81.68
2023-04-16T03:45:45.439Z,80.57
2023-04-16T03:48:30.697Z,78.77
2023-04-16T03:51:16.170Z,82.53
2023-04-16T03:54:01.589Z,83.47
2023-04-16T03:56:46.888Z,77.43
2023-04-16T03:59:32.370Z,85.63
2023-04-16T04:02:17.828Z,89.60
2023-04-16T04:05:03.202Z,84.97
2023-04-16T04:07:48.708Z,83.28
2023-04-16T04:10:35.132Z,81.78
2023-04-16T04:13:20.515Z,81.20
2023-04-16T04:16:06.330Z,85.20
2023-04-16T04:18:51.626Z,83.20
2023-04-16T04:21:36.984Z,79.17
2023-04-16T04:24:22.273Z,83.23
2023-04-16T04:27:07.244Z,89.27
2023-04-16T04:29:53.309Z,86.90
2023-04-16T04:32:38.587Z,80.57
2023-04-16T04:35:23.780Z,78.07
2023-04-16T04:38:09.236Z,78.73
2023-04-16T04:40:54.706Z,76.70
2023-04-16T04:43:40.094Z,77.23
2023-04-16T04:46:25.197Z,76.67
2023-04-16T04:49:10.747Z,74.70
2023-04-16T04:51:56.155Z,73.77
2023-04-16T04:54:40.985Z,77.50
2023-04-16T04:57:26.503Z,74.40
2023-04-16T05:00:12.150Z,74.97
2023-04-16T05:02:57.411Z,75.07
2023-04-16T05:05:42.876Z,76.03
2023-04-16T05:08:28.184Z,69.17
2023-04-16T05:11:13.587Z,75.23
2023-04-16T05:13:58.390Z,74.33
2023-04-16T05:16:43.720Z,76.77
2023-04-16T05:19:29.170Z,71.57
2023-04-16T05:22:14.531Z,74.23
2023-04-16T05:24:59.895Z,70.23
2023-04-16T05:27:45.184Z,76.23
2023-04-16T05:30:30.633Z,72.80
2023-04-16T05:33:16.025Z,69.83
2023-04-16T05:36:01.570Z,72.53
2023-04-16T05:38:46.646Z,77.80
2023-04-16T05:41:31.876Z,74.33
2023-04-16T05:44:17.326Z,75.17
2023-04-16T05:47:02.644Z,76.40
2023-04-16T05:49:47.561Z,77.57
2023-04-16T05:52:32.916Z,76.37
2023-04-16T05:55:18.254Z,72.50
2023-04-16T05:58:03.566Z,71.17
2023-04-16T06:00:48.747Z,77.30
2023-04-16T06:03:34.152Z,72.97
2023-04-16T06:06:19.519Z,73.80
2023-04-16T06:09:04.640Z,70.67
2023-04-16T06:11:50.063Z,75.03
2023-04-16T06:14:35.312Z,75.00
2023-04-16T06:17:20.818Z,78.77
2023-04-16T06:20:06.485Z,75.03
2023-04-16T06:22:51.707Z,76.03
2023-04-16T06:25:37.186Z,76.50
2023-04-16T06:28:22.446Z,75.00
2023-04-16T06:31:07.691Z,73.37
2023-04-16T06:33:52.902Z,73.53
2023-04-16T06:36:38.211Z,76.57
2023-04-16T06:39:23.679Z,70.90
2023-04-16T06:42:09.111Z,71.00
2023-04-16T06:44:54.558Z,67.17
2023-04-16T06:47:40.010Z,67.43
2023-04-16T06:50:26.131Z,69.60
2023-04-16T06:53:11.423Z,66.23
2023-04-16T06:55:56.701Z,69.93
2023-04-16T06:58:42.253Z,63.80
2023-04-16T07:01:28.339Z,65.50
2023-04-16T07:04:13.506Z,66.47
2023-04-16T07:06:58.884Z,67.23
2023-04-16T07:09:44.342Z,68.87
2023-04-16T07:12:29.720Z,68.53
2023-04-16T07:15:14.975Z,65.27
2023-04-16T07:18:00.471Z,63.20
2023-04-16T07:20:45.716Z,63.30
2023-04-16T07:23:31.095Z,61.73
2023-04-16T07:26:16.642Z,60.10
2023-04-16T07:29:01.975Z,72.57
2023-04-16T07:31:47.556Z,58.93
2023-04-16T07:34:32.694Z,54.00
2023-04-16T07:37:18.058Z,59.00
2023-04-16T07:40:02.899Z,61.90
2023-04-16T07:42:48.289Z,58.17
2023-04-16T07:45:33.995Z,57.67
2023-04-16T07:48:18.922Z,55.10
2023-04-16T07:51:04.635Z,49.80
2023-04-16T07:53:49.878Z,52.90
2023-04-16T07:56:35.701Z,53.27
2023-04-16T07:59:23.655Z,52.17
2023-04-16T08:02:14.208Z,52.40
2023-04-16T08:04:59.744Z,51.70
2023-04-16T08:07:44.829Z,45.50
2023-04-16T08:10:30.043Z,46.67
2023-04-16T08:13:15.387Z,45.87
2023-04-16T08:16:01.082Z,46.23
2023-04-16T08:18:46.359Z,45.53
2023-04-16T08:21:31.517Z,48.47
2023-04-16T08:24:16.856Z,47.47
2023-04-16T08:27:15.564Z,45.95
2023-04-16T08:30:04.070Z,45.67
2023-04-16T08:32:50.298Z,47.47
2023-04-16T08:35:35.472Z,45.97
2023-04-16T08:38:20.334Z,45.10
2023-04-16T08:41:08.490Z,46.80
2023-04-16T08:43:56.088Z,48.57
2023-04-16T08:46:41.671Z,49.30
2023-04-16T08:49:27.762Z,41.93
2023-04-16T08:52:19.467Z,49.00
2023-04-16T08:55:12.175Z,48.15
2023-04-16T08:58:01.558Z,46.42
2023-04-16T09:00:48.888Z,44.95
2023-04-16T09:03:36.504Z,43.35
2023-04-16T09:06:22.451Z,46.20
2023-04-16T09:09:09.207Z,44.53
2023-04-16T09:11:55.881Z,44.53
2023-04-16T09:14:41.212Z,43.20
2023-04-16T09:17:26.390Z,44.85
2023-04-16T09:20:12.564Z,41.53
2023-04-16T09:22:57.827Z,44.60
2023-04-16T09:25:43.133Z,42.80
2023-04-16T09:28:40.117Z,41.78
2023-04-16T09:31:25.387Z,42.42
2023-04-16T09:34:10.803Z,41.60
2023-04-16T09:36:56.138Z,43.13
2023-04-16T09:39:42.925Z,43.03
2023-04-16T09:42:30.926Z,41.65
2023-04-16T09:45:17.209Z,43.35
2023-04-16T09:48:03.654Z,42.08
2023-04-16T09:50:52.121Z,42.35
2023-04-16T09:53:37.178Z,41.80
2023-04-16T09:56:25.757Z,42.78
2023-04-16T09:59:31.387Z,52.78
2023-04-16T10:02:17.393Z,43.30
2023-04-16T10:05:03.118Z,47.17
2023-04-16T10:07:48.259Z,40.83
2023-04-16T10:10:33.872Z,45.00
2023-04-16T10:13:18.983Z,42.83
2023-04-16T10:16:04.954Z,44.05
2023-04-16T10:18:50.046Z,41.05
2023-04-16T10:21:35.494Z,43.10
2023-04-16T10:24:20.928Z,41.90
2023-04-16T10:27:06.417Z,44.00
2023-04-16T10:29:51.864Z,40.70
2023-04-16T10:32:38.222Z,40.97
2023-04-16T10:35:25.477Z,43.17
2023-04-16T10:38:22.916Z,42.42
2023-04-16T10:41:08.488Z,42.45
2023-04-16T10:44:03.237Z,38.67
2023-04-16T10:46:49.009Z,42.88
2023-04-16T10:49:35.473Z,44.33
2023-04-16T10:52:20.806Z,43.13
2023-04-16T10:55:06.764Z,41.85
2023-04-16T10:57:52.118Z,40.67
2023-04-16T11:01:07.928Z,45.35
2023-04-16T11:03:53.503Z,42.05
2023-04-16T11:06:38.670Z,42.22
2023-04-16T11:09:45.880Z,41.55
2023-04-16T11:12:36.147Z,44.50
2023-04-16T11:15:21.470Z,42.80
2023-04-16T11:18:07.530Z,41.70
2023-04-16T11:20:52.968Z,44.63
2023-04-16T11:23:49.696Z,43.58
2023-04-16T11:26:34.976Z,42.15
2023-04-16T11:29:20.308Z,41.83
2023-04-16T11:32:06.308Z,44.65
2023-04-16T11:34:51.995Z,42.10
2023-04-16T11:37:38.848Z,43.92
2023-04-16T11:40:24.414Z,43.67
2023-04-16T11:43:16.805Z,40.92
2023-04-16T11:46:10.313Z,44.35
2023-04-16T11:49:06.874Z,42.58
2023-04-16T11:51:52.991Z,46.33
2023-04-16T11:54:38.492Z,50.88
2023-04-16T11:57:27.924Z,46.33
2023-04-16T12:00:14.849Z,44.85
2023-04-16T12:03:03.012Z,43.80
2023-04-16T12:05:48.419Z,44.88
2023-04-16T12:08:34.484Z,44.23
2023-04-16T12:11:19.860Z,45.08
2023-04-16T12:14:10.469Z,42.13
2023-04-16T12:16:56.043Z,41.83
2023-04-16T12:19:51.205Z,46.10
2023-04-16T12:22:38.660Z,43.05
2023-04-16T12:25:24.593Z,42.65
2023-04-16T12:28:10.009Z,41.53
2023-04-16T12:30:55.889Z,40.75
2023-04-16T12:33:41.200Z,40.42
2023-04-16T12:36:26.130Z,43.03
2023-04-16T12:39:12.438Z,38.08
2023-04-16T12:41:57.839Z,42.88
2023-04-16T12:44:43.388Z,38.88
2023-04-16T12:47:28.883Z,40.58
2023-04-16T12:50:14.262Z,36.85
2023-04-16T12:52:59.755Z,39.75
2023-04-16T12:55:45.062Z,38.85
2023-04-16T12:58:30.391Z,38.97
2023-04-16T13:01:15.407Z,39.67
2023-04-16T13:04:01.092Z,39.42
2023-04-16T13:06:46.299Z,40.72
2023-04-16T13:09:31.843Z,41.67
2023-04-16T13:12:16.824Z,36.65
2023-04-16T13:15:02.027Z,39.85
2023-04-16T13:17:47.161Z,40.60
2023-04-16T13:20:33.135Z,39.45
2023-04-16T13:23:18.377Z,36.30
2023-04-16T13:26:03.240Z,37.30
2023-04-16T13:28:48.352Z,42.78
2023-04-16T13:31:33.689Z,38.92
2023-04-16T13:34:19.736Z,38.30
2023-04-16T13:37:05.047Z,35.38
2023-04-16T13:39:50.477Z,35.92
2023-04-16T13:42:35.374Z,35.95
2023-04-16T13:45:20.850Z,38.40
2023-04-16T13:48:05.827Z,32.88
2023-04-16T13:50:51.065Z,36.20
2023-04-16T13:53:36.298Z,33.55
2023-04-16T13:56:21.817Z,38.03
2023-04-16T13:59:07.780Z,35.08
2023-04-16T14:01:53.177Z,34.50
2023-04-16T14:04:38.248Z,33.97
2023-04-16T14:07:23.758Z,32.67
2023-04-16T14:10:09.681Z,32.50
2023-04-16T14:12:55.026Z,31.83
2023-04-16T14:15:40.085Z,31.45
2023-04-16T14:18:23.092Z,30.67
2023-04-16T14:21:08.689Z,32.35
2023-04-16T14:23:53.792Z,30.75
2023-04-16T14:26:39.163Z,32.30
2023-04-16T14:29:24.574Z,32.50
2023-04-16T14:32:10.239Z,34.22
2023-04-16T14:34:55.654Z,30.77
2023-04-16T14:37:41.150Z,33.97
2023-04-16T14:40:26.222Z,32.47
2023-04-16T14:43:11.497Z,33.58
2023-04-16T14:45:57.070Z,30.40
2023-04-16T14:48:43.097Z,33.45
2023-04-16T14:51:28.456Z,32.55
2023-04-16T14:54:14.024Z,30.83
2023-04-16T14:56:59.541Z,34.10
2023-04-16T14:59:44.664Z,30.48
2023-04-16T15:02:30.225Z,32.03
2023-04-16T15:05:15.562Z,32.97
2023-04-16T15:08:00.708Z,30.25
2023-04-16T15:10:45.942Z,34.75
2023-04-16T15:13:31.087Z,31.60
2023-04-16T15:16:17.101Z,32.17
2023-04-16T15:19:04.802Z,29.73
2023-04-16T15:21:50.138Z,33.40
2023-04-16T15:24:35.521Z,32.53
2023-04-16T15:27:20.829Z,29.70
2023-04-16T15:30:07.175Z,29.77
2023-04-16T15:32:52.172Z,31.75
2023-04-16T15:35:37.905Z,29.85
2023-04-16T15:38:22.988Z,31.10
2023-04-16T15:41:09.472Z,31.15
2023-04-16T15:43:54.460Z,30.42
2023-04-16T15:46:39.980Z,30.80
2023-04-16T15:49:25.781Z,30.95
2023-04-16T15:52:11.386Z,34.38
2023-04-16T15:54:56.873Z,29.08
2023-04-16T15:57:42.213Z,30.60
2023-04-16T16:00:27.434Z,28.10
2023-04-16T16:03:13.116Z,29.92
2023-04-16T16:05:59.409Z,35.10
2023-04-16T16:08:44.914Z,30.58
2023-04-16T16:11:30.445Z,34.78
2023-04-16T16:14:18.112Z,30.85
2023-04-16T16:17:03.686Z,31.17
2023-04-16T16:19:49.057Z,29.77
2023-04-16T16:22:34.473Z,32.35
2023-04-16T16:25:20.185Z,29.08
2023-04-16T16:28:06.526Z,31.77
2023-04-16T16:30:52.058Z,32.58
2023-04-16T16:33:38.481Z,29.83
2023-04-16T16:36:26.023Z,28.23
2023-04-16T16:39:11.679Z,32.00
2023-04-16T16:41:57.000Z,31.80
2023-04-16T16:44:42.174Z,30.02
2023-04-16T16:47:27.685Z,31.20
2023-04-16T16:50:13.001Z,30.13
2023-04-16T16:52:59.380Z,27.90
2023-04-16T16:55:44.384Z,29.70
2023-04-16T16:58:29.805Z,29.00
2023-04-16T17:01:14.749Z,29.83
2023-04-16T17:04:00.355Z,30.80
2023-04-16T17:06:45.561Z,30.52
2023-04-16T17:09:31.464Z,25.73
2023-04-16T17:12:16.758Z,26.05
2023-04-16T17:15:01.624Z,24.80
2023-04-16T17:17:47.025Z,26.13
2023-04-16T17:20:32.456Z,27.52
2023-04-16T17:23:17.626Z,26.40
2023-04-16T17:26:02.544Z,27.70
2023-04-16T17:28:47.852Z,27.02
2023-04-16T17:31:33.198Z,27.70
2023-04-16T17:34:20.964Z,27.92
2023-04-16T17:37:06.327Z,26.75
2023-04-16T17:39:51.758Z,27.27
2023-04-16T17:42:37.325Z,27.50
2023-04-16T17:45:22.805Z,29.30
2023-04-16T17:48:08.197Z,27.77
2023-04-16T17:50:53.465Z,26.15
2023-04-16T17:53:38.514Z,27.48
2023-04-16T17:56:23.721Z,27.52
2023-04-16T17:59:09.073Z,30.27
2023-04-16T18:01:54.793Z,27.02
2023-04-16T18:04:39.953Z,29.17
2023-04-16T18:07:25.343Z,27.77
2023-04-16T18:10:10.247Z,27.98
2023-04-16T18:12:55.420Z,28.17
2023-04-16T18:15:40.887Z,29.25
2023-04-16T18:18:26.335Z,26.88
2023-04-16T18:21:12.033Z,29.80
2023-04-16T18:23:57.349Z,29.83
2023-04-16T18:26:42.522Z,28.92
2023-04-16T18:29:33.948Z,31.42
2023-04-16T18:32:19.188Z,29.65
2023-04-16T18:35:08.270Z,31.38
2023-04-16T18:37:53.415Z,29.73
2023-04-16T18:40:39.761Z,30.15
2023-04-16T18:43:25.184Z,29.05
2023-04-16T18:46:10.708Z,28.75
2023-04-16T18:48:55.502Z,31.33
2023-04-16T18:51:41.009Z,29.23
2023-04-16T18:54:26.453Z,31.52
2023-04-16T18:57:11.854Z,29.75
2023-04-16T18:59:57.246Z,34.83
2023-04-16T19:02:42.704Z,28.85
2023-04-16T19:05:29.338Z,34.03
2023-04-16T19:08:14.542Z,30.98
2023-04-16T19:11:00.184Z,32.85
2023-04-16T19:13:45.662Z,32.78
2023-04-16T19:16:31.727Z,31.65
2023-04-16T19:19:17.216Z,28.90
2023-04-16T19:22:02.518Z,31.58
2023-04-16T19:24:47.858Z,33.58
2023-04-16T19:27:33.614Z,31.55
2023-04-16T19:30:19.075Z,30.70
2023-04-16T19:33:04.433Z,33.95
2023-04-16T19:35:49.790Z,33.70
2023-04-16T19:38:35.134Z,34.50
2023-04-16T19:41:20.326Z,35.00
2023-04-16T19:44:05.801Z,32.90
2023-04-16T19:46:51.285Z,31.98
2023-04-16T19:49:36.803Z,32.47
2023-04-16T19:52:21.712Z,37.35
2023-04-16T19:55:07.623Z,41.05
2023-04-16T19:57:52.948Z,41.03
2023-04-16T20:00:39.589Z,38.63
2023-04-16T20:03:24.711Z,38.33
2023-04-16T20:06:10.146Z,40.97
2023-04-16T20:08:56.249Z,37.55
2023-04-16T20:11:41.506Z,38.50
2023-04-16T20:14:26.881Z,37.72
2023-04-16T20:17:12.402Z,37.63
2023-04-16T20:19:57.912Z,38.38
2023-04-16T20:22:43.411Z,42.03
2023-04-16T20:25:28.543Z,39.35
2023-04-16T20:28:13.863Z,40.38
2023-04-16T20:31:02.242Z,39.53
2023-04-16T20:33:47.701Z,39.55
2023-04-16T20:36:33.030Z,39.67
2023-04-16T20:39:18.224Z,42.25
2023-04-16T20:42:03.803Z,42.10
2023-04-16T20:44:49.485Z,40.55
2023-04-16T20:47:35.083Z,40.90
2023-04-16T20:50:20.150Z,42.80
2023-04-16T20:53:05.473Z,43.88
2023-04-16T20:55:50.925Z,42.33
2023-04-16T20:58:36.287Z,39.73
2023-04-16T21:01:21.859Z,39.40
2023-04-16T21:04:07.388Z,45.23
2023-04-16T21:06:52.381Z,40.93
2023-04-16T21:09:37.780Z,45.23
2023-04-16T21:12:23.341Z,43.00
2023-04-16T21:15:09.110Z,42.28
2023-04-16T21:17:54.115Z,42.00
2023-04-16T21:20:39.673Z,42.83
2023-04-16T21:23:24.779Z,45.07
2023-04-16T21:26:10.352Z,38.55
2023-04-16T21:28:55.735Z,40.03
2023-04-16T21:31:41.211Z,38.57
2023-04-16T21:34:26.551Z,40.30
2023-04-16T21:37:11.766Z,39.23
2023-04-16T21:39:57.208Z,38.60
2023-04-16T21:42:42.631Z,39.73
2023-04-16T21:45:29.975Z,39.50
2023-04-16T21:48:15.627Z,41.03
2023-04-16T21:51:01.546Z,38.90
2023-04-16T21:53:46.922Z,40.00
2023-04-16T21:56:32.468Z,38.97
2023-04-16T21:59:17.742Z,36.75
2023-04-16T22:02:03.278Z,41.27
2023-04-16T22:04:48.392Z,38.73
2023-04-16T22:07:33.938Z,38.20
2023-04-16T22:10:19.215Z,39.60
2023-04-16T22:13:04.269Z,42.93
2023-04-16T22:15:49.620Z,39.33
2023-04-16T22:18:34.998Z,35.87
2023-04-16T22:21:20.470Z,39.40
2023-04-16T22:24:06.057Z,42.23
2023-04-16T22:26:51.371Z,39.37
2023-04-16T22:29:36.896Z,37.63
2023-04-16T22:32:22.507Z,37.27
2023-04-16T22:35:08.240Z,39.27
2023-04-16T22:37:53.098Z,41.23
2023-04-16T22:40:38.555Z,36.20
2023-04-16T22:43:23.842Z,38.73
2023-04-16T22:46:09.466Z,38.20
2023-04-16T22:48:55.089Z,36.33
2023-04-16T22:51:40.466Z,36.80
2023-04-16T22:54:32.727Z,37.27
2023-04-16T22:57:18.161Z,40.40
2023-04-16T23:00:03.990Z,39.60
2023-04-16T23:02:49.417Z,37.20
2023-04-16T23:05:34.944Z,41.03
2023-04-16T23:08:20.170Z,39.33
2023-04-16T23:11:05.586Z,38.00
2023-04-16T23:13:51.044Z,36.13
2023-04-16T23:16:36.338Z,39.90
2023-04-16T23:19:21.913Z,35.43
2023-04-16T23:22:07.107Z,35.63
2023-04-16T23:24:52.448Z,37.37
2023-04-16T23:27:37.598Z,36.50
2023-04-16T23:30:22.956Z,37.57
2023-04-16T23:33:07.852Z,34.20
2023-04-16T23:35:53.143Z,33.43
2023-04-16T23:38:38.630Z,34.30
2023-04-16T23:41:24.050Z,35.20
2023-04-16T23:44:09.497Z,34.77
2023-04-16T23:46:54.798Z,36.53
2023-04-16T23:49:40.237Z,34.47
2023-04-16T23:52:25.713Z,37.13
2023-04-16T23:55:10.586Z,35.10
2023-04-16T23:57:55.850Z,35.97
